Time;durP1;ratioP1;P1;durP2;ratioP2;P2;SDS_P1;SDS_P2;PMS_P1;PMS_P2;Temp;Humidity;BMP_temperature;BMP_pressure;BME280_temperature;BME280_humidity;BME280_pressure;Samples;Min_cycle;Max_cycle;Signal;HPM_P1;HPM_P2
2022/08/08 00:00:56;;;;;;;10.00;6.38;;;;;;;26.08;39.45;102628.66;5098163;28;20058;-77
2022/08/08 00:03:33;;;;;;;10.77;6.88;;;;;;;26.54;38.75;102630.91;5115763;28;20023;-77
2022/08/08 00:06:11;;;;;;;12.38;6.80;;;;;;;26.48;38.55;102624.03;5098207;28;20364;-77
2022/08/08 00:08:45;;;;;;;9.27;6.60;;;;;;;26.61;38.02;102634.16;5098172;28;20016;-77
2022/08/08 00:11:19;;;;;;;9.57;6.65;;;;;;;26.26;39.22;102631.41;5097297;28;20027;-77
2022/08/08 00:13:59;;;;;;;11.50;7.03;;;;;;;26.22;39.12;102631.53;5098024;28;20022;-77
2022/08/08 00:16:38;;;;;;;9.23;6.32;;;;;;;26.62;38.49;102627.84;5115146;28;20602;-77
2022/08/08 00:19:26;;;;;;;10.57;6.65;;;;;;;26.18;39.48;102613.88;5098079;28;20019;-77
2022/08/08 00:22:17;;;;;;;14.23;6.85;;;;;;;26.35;38.98;102614.88;5098266;28;20024;-77
2022/08/08 00:24:48;;;;;;;10.25;6.72;;;;;;;26.63;37.80;102613.50;5115270;28;20521;-77
2022/08/08 00:27:15;;;;;;;10.88;6.65;;;;;;;26.27;38.48;102622.41;5097766;28;20031;-77
2022/08/08 00:30:01;;;;;;;10.27;6.20;;;;;;;26.47;38.20;102614.25;5115747;28;20070;-77
2022/08/08 00:32:33;;;;;;;10.90;7.05;;;;;;;26.15;39.17;102614.03;5096883;28;20118;-77
2022/08/08 00:35:22;;;;;;;8.50;6.30;;;;;;;26.05;39.08;102607.38;5097665;28;20034;-77
2022/08/08 00:38:06;;;;;;;8.40;6.32;;;;;;;26.28;38.23;102608.06;5096736;28;20019;-77
2022/08/08 00:40:37;;;;;;;10.45;6.90;;;;;;;25.96;39.20;102607.78;5115697;28;20039;-77
2022/08/08 00:43:42;;;;;;;10.48;6.75;;;;;;;26.19;38.59;102604.03;5096980;28;20122;-77
2022/08/08 00:46:39;;;;;;;11.50;7.35;;;;;;;26.21;38.20;102603.03;5096582;28;20047;-77
2022/08/08 00:49:19;;;;;;;8.27;6.57;;;;;;;26.09;38.89;102603.63;5096900;28;20051;-77
2022/08/08 00:51:45;;;;;;;8.60;6.43;;;;;;;25.79;39.49;102605.88;5096632;28;20163;-77
2022/08/08 00:54:13;;;;;;;10.07;6.38;;;;;;;25.94;39.20;102602.50;5097275;28;20059;-77
2022/08/08 00:56:57;;;;;;;10.52;6.63;;;;;;;25.86;39.56;102594.81;5115289;28;20024;-77
2022/08/08 00:59:41;;;;;;;7.75;6.50;;;;;;;25.97;39.10;102598.81;5096244;28;20085;-77
2022/08/08 01:02:29;;;;;;;10.48;7.00;;;;;;;25.79;39.80;102609.44;5096711;28;20034;-77
2022/08/08 01:05:14;;;;;;;11.50;6.78;;;;;;;25.81;39.35;102607.56;5097146;28;20080;-77
2022/08/08 01:08:03;;;;;;;10.35;6.63;;;;;;;26.00;39.25;102604.03;5096116;28;20023;-77
2022/08/08 01:10:50;;;;;;;9.05;6.70;;;;;;;25.86;39.52;102607.34;5096634;28;20030;-77
2022/08/08 01:13:46;;;;;;;9.52;6.10;;;;;;;25.96;39.15;102605.09;5096387;28;20032;-77
2022/08/08 01:16:52;;;;;;;10.43;6.53;;;;;;;26.09;39.22;102600.94;5096786;28;20479;-77
2022/08/08 01:19:39;;;;;;;8.40;7.07;;;;;;;25.73;39.26;102607.03;5096451;28;20031;-77
2022/08/08 01:22:13;;;;;;;9.18;6.85;;;;;;;25.77;39.47;102597.94;5096612;28;20031;-76
2022/08/08 01:25:00;;;;;;;11.07;6.70;;;;;;;25.64;39.38;102596.78;5114826;28;20020;-77
2022/08/08 01:27:54;;;;;;;13.65;7.75;;;;;;;25.66;39.66;102601.09;5095789;28;20419;-77
2022/08/08 01:30:32;;;;;;;11.05;6.68;;;;;;;25.61;39.98;102607.59;5096037;28;20410;-77
2022/08/08 01:33:33;;;;;;;9.10;7.35;;;;;;;25.50;39.93;102606.31;5096413;28;20025;-77
2022/08/08 01:36:08;;;;;;;10.55;8.05;;;;;;;25.59;39.91;102594.28;5096425;28;20491;-77
2022/08/08 01:38:42;;;;;;;12.45;6.80;;;;;;;25.80;39.17;102603.16;5096379;28;20024;-77
2022/08/08 01:41:34;;;;;;;12.35;7.80;;;;;;;25.56;39.79;102592.63;5113725;28;20023;-77
2022/08/08 01:44:22;;;;;;;11.05;6.57;;;;;;;25.88;39.01;102598.31;5095873;28;20117;-76
2022/08/08 01:47:16;;;;;;;10.82;7.95;;;;;;;26.11;38.46;102596.38;5096057;28;20100;-77
2022/08/08 01:50:00;;;;;;;10.60;7.05;;;;;;;25.91;39.00;102599.94;5095117;28;20028;-77
2022/08/08 01:52:42;;;;;;;9.00;6.70;;;;;;;25.73;39.20;102590.97;5114289;28;20061;-77
2022/08/08 01:55:22;;;;;;;11.18;6.78;;;;;;;25.42;38.83;102597.75;5113425;28;20038;-77
2022/08/08 01:58:13;;;;;;;10.52;6.85;;;;;;;25.57;39.41;102597.03;5095569;28;20031;-77
2022/08/08 02:01:08;;;;;;;10.57;7.45;;;;;;;25.38;39.33;102601.50;5050545;28;20407;-77
2022/08/08 02:03:52;;;;;;;8.88;7.43;;;;;;;25.54;39.26;102597.19;5094932;28;20035;-77
2022/08/08 02:06:34;;;;;;;9.35;6.88;;;;;;;25.66;39.12;102606.44;5095657;28;20059;-77
2022/08/08 02:09:07;;;;;;;9.80;6.93;;;;;;;25.44;39.77;102601.22;5094386;28;20030;-77
2022/08/08 02:11:38;;;;;;;9.90;7.35;;;;;;;25.59;39.18;102598.78;5095441;28;20425;-77
2022/08/08 02:14:17;;;;;;;8.23;6.28;;;;;;;26.20;37.51;102601.28;5095506;28;20054;-77
2022/08/08 02:16:55;;;;;;;11.23;6.88;;;;;;;25.94;38.30;102604.28;5094784;28;20081;-77
2022/08/08 02:19:30;;;;;;;10.10;6.95;;;;;;;25.40;39.52;102600.50;5095279;28;20023;-77
2022/08/08 02:24:59;;;;;;;10.20;6.45;;;;;;;25.69;38.84;102602.75;5112971;28;20513;-76
2022/08/08 02:27:37;;;;;;;9.30;6.57;;;;;;;25.92;38.19;102604.38;5095118;28;20040;-77
2022/08/08 02:30:07;;;;;;;9.57;6.82;;;;;;;25.81;38.53;102602.19;5112506;28;20068;-77
2022/08/08 02:32:59;;;;;;;10.80;6.82;;;;;;;25.51;39.16;102608.06;5113226;28;20032;-77
2022/08/08 02:35:55;;;;;;;9.18;6.70;;;;;;;25.68;38.90;102603.72;5095176;28;20062;-77
2022/08/08 02:38:43;;;;;;;9.10;6.50;;;;;;;25.56;39.05;102600.66;5094335;28;20036;-77
2022/08/08 02:41:29;;;;;;;11.48;7.63;;;;;;;25.51;39.38;102602.69;5094747;28;20489;-77
2022/08/08 02:44:13;;;;;;;9.25;6.93;;;;;;;25.45;39.42;102613.66;5094467;28;20114;-76
2022/08/08 02:47:01;;;;;;;8.80;6.72;;;;;;;24.90;40.62;102607.09;5095105;28;20034;-77
2022/08/08 02:49:50;;;;;;;10.93;7.18;;;;;;;24.92;40.43;102608.84;5093419;28;20680;-77
2022/08/08 02:52:50;;;;;;;13.27;7.97;;;;;;;24.98;40.29;102608.59;5094354;28;20019;-77
2022/08/08 02:55:15;;;;;;;9.27;7.97;;;;;;;25.00;40.51;102612.06;5094502;28;20127;-77
2022/08/08 02:58:15;;;;;;;11.07;8.63;;;;;;;24.97;40.52;102612.19;5094763;28;20081;-77
2022/08/08 03:01:17;;;;;;;14.52;8.90;;;;;;;25.37;39.52;102613.13;5112713;28;20436;-78
2022/08/08 03:04:11;;;;;;;11.82;8.43;;;;;;;25.28;40.04;102621.53;5094726;28;20072;-77
2022/08/08 03:07:22;;;;;;;10.05;8.60;;;;;;;25.28;39.99;102622.44;5093862;28;20072;-77
2022/08/08 03:10:22;;;;;;;14.75;8.77;;;;;;;25.30;39.89;102615.19;5112733;28;20027;-77
2022/08/08 03:13:12;;;;;;;12.95;8.57;;;;;;;25.23;40.04;102625.28;5111167;28;20073;-77
2022/08/08 03:16:06;;;;;;;11.10;7.97;;;;;;;25.13;40.45;102628.44;5094452;28;20055;-77
2022/08/08 03:18:50;;;;;;;10.43;8.27;;;;;;;24.85;40.75;102626.94;5094239;28;20425;-77
2022/08/08 03:21:16;;;;;;;12.93;8.20;;;;;;;25.07;40.54;102624.22;5093766;28;20160;-77
2022/08/08 03:23:41;;;;;;;12.75;7.70;;;;;;;24.88;40.65;102618.78;5094488;28;20082;-77
2022/08/08 03:26:06;;;;;;;11.27;8.07;;;;;;;25.02;40.62;102621.75;5112179;28;20020;-77
2022/08/08 03:28:40;;;;;;;11.60;7.82;;;;;;;25.19;40.14;102629.03;5094060;28;20540;-77
2022/08/08 03:33:50;;;;;;;9.07;7.32;;;;;;;25.31;39.61;102637.47;5112134;28;20088;-77
2022/08/08 03:36:16;;;;;;;12.52;7.60;;;;;;;25.20;39.94;102636.13;5093809;28;20028;-76
2022/08/08 03:38:47;;;;;;;14.88;7.85;;;;;;;24.96;40.46;102631.84;5094171;28;20390;-77
2022/08/08 03:41:12;;;;;;;12.63;7.85;;;;;;;25.13;40.02;102629.31;5111798;28;20047;-76
2022/08/08 03:43:37;;;;;;;10.15;7.60;;;;;;;25.40;39.59;102642.44;5112645;28;20031;-77
2022/08/08 03:46:06;;;;;;;12.48;7.38;;;;;;;25.43;39.29;102636.97;5112129;28;20071;-77
2022/08/08 03:48:31;;;;;;;8.70;6.63;;;;;;;25.62;38.75;102644.16;5093663;28;20038;-77
2022/08/08 03:50:57;;;;;;;10.00;7.00;;;;;;;25.38;39.46;102637.16;5112428;28;20107;-77
2022/08/08 03:53:24;;;;;;;11.40;7.78;;;;;;;25.16;39.76;102634.53;5112367;28;20098;-77
2022/08/08 03:55:50;;;;;;;10.40;7.55;;;;;;;25.02;40.43;102634.28;5093348;28;20028;-77
2022/08/08 03:58:18;;;;;;;11.45;7.53;;;;;;;24.95;40.52;102635.44;5112227;28;20045;-76
2022/08/08 04:00:52;;;;;;;10.75;7.65;;;;;;;24.93;40.60;102632.84;5094097;28;20022;-77
2022/08/08 04:03:18;;;;;;;10.82;7.72;;;;;;;25.06;40.51;102638.56;5093534;28;20471;-77
2022/08/08 04:05:43;;;;;;;12.35;7.03;;;;;;;25.07;40.18;102642.94;5112625;28;20023;-77
2022/08/08 04:08:19;;;;;;;9.15;7.00;;;;;;;24.87;40.65;102642.00;5112020;28;20028;-78
2022/08/08 04:10:47;;;;;;;12.70;7.80;;;;;;;25.06;40.31;102646.56;5094130;28;20107;-78
2022/08/08 04:13:13;;;;;;;9.27;7.20;;;;;;;24.46;41.60;102643.69;5094339;28;20027;-78
2022/08/08 04:15:38;;;;;;;11.75;9.15;;;;;;;24.80;41.09;102643.19;5093553;28;20027;-78
2022/08/08 04:18:04;;;;;;;10.68;7.45;;;;;;;24.95;40.70;102646.13;5094341;28;20020;-77
2022/08/08 04:20:29;;;;;;;11.38;6.40;;;;;;;25.08;40.40;102647.38;5094080;28;20027;-78
2022/08/08 04:22:56;;;;;;;10.60;7.22;;;;;;;24.53;41.75;102646.03;5093210;28;20031;-78
2022/08/08 04:25:21;;;;;;;10.18;7.63;;;;;;;24.75;41.37;102649.66;5097499;28;20475;-78
2022/08/08 04:27:46;;;;;;;10.35;7.18;;;;;;;25.13;40.20;102661.41;5115907;28;20024;-78
2022/08/08 04:30:12;;;;;;;10.52;6.88;;;;;;;24.96;40.67;102653.25;5096650;28;20019;-78
2022/08/08 04:32:37;;;;;;;12.68;7.60;;;;;;;24.98;40.74;102648.72;5097526;28;20026;-77
2022/08/08 04:35:03;;;;;;;13.50;7.53;;;;;;;25.02;40.97;102653.00;5115745;28;20088;-78
2022/08/08 04:37:29;;;;;;;12.65;6.85;;;;;;;25.46;39.46;102652.88;5114923;28;20058;-78
2022/08/08 04:39:55;;;;;;;10.23;6.63;;;;;;;25.36;39.92;102662.25;5097224;28;20024;-78
2022/08/08 04:42:21;;;;;;;9.20;7.20;;;;;;;25.17;40.44;102668.38;5097240;28;20022;-78
2022/08/08 04:44:47;;;;;;;8.75;6.63;;;;;;;24.65;42.00;102665.22;5096565;28;20078;-77
2022/08/08 04:47:12;;;;;;;13.68;7.82;;;;;;;25.15;40.91;102669.38;5097041;28;20051;-77
2022/08/08 04:49:38;;;;;;;8.90;6.88;;;;;;;25.09;40.67;102667.84;5096961;28;20020;-78
2022/08/08 04:52:03;;;;;;;10.50;7.05;;;;;;;25.36;40.31;102672.94;5096416;28;20024;-77
2022/08/08 04:54:29;;;;;;;10.10;7.03;;;;;;;25.30;40.73;102674.06;5097002;28;20026;-77
2022/08/08 04:56:54;;;;;;;10.23;6.65;;;;;;;24.67;42.43;102674.03;5096946;28;20122;-78
2022/08/08 04:59:20;;;;;;;10.25;7.13;;;;;;;24.81;42.12;102670.78;5114506;28;20023;-78
2022/08/08 05:01:45;;;;;;;16.42;8.23;;;;;;;24.47;43.32;102678.34;5097061;28;20020;-78
2022/08/08 05:04:11;;;;;;;14.65;8.10;;;;;;;25.59;40.76;102671.94;5115407;28;20107;-78
2022/08/08 05:06:36;;;;;;;11.93;7.47;;;;;;;25.05;41.71;102679.59;5096568;28;20022;-78
2022/08/08 05:09:03;;;;;;;12.82;7.70;;;;;;;25.60;41.20;102675.50;5096996;28;20043;-78
2022/08/08 05:11:28;;;;;;;16.35;7.72;;;;;;;25.38;41.57;102687.16;5096365;28;20051;-78
2022/08/08 05:13:54;;;;;;;9.88;7.22;;;;;;;25.22;41.89;102685.09;5097296;28;20054;-78
2022/08/08 05:16:19;;;;;;;14.02;8.45;;;;;;;25.46;41.68;102689.47;5096934;28;20019;-78
2022/08/08 05:18:44;;;;;;;11.55;7.38;;;;;;;24.86;42.66;102685.72;5096047;28;20023;-78
2022/08/08 05:21:10;;;;;;;9.70;7.18;;;;;;;24.86;42.89;102685.72;5096356;28;20528;-78
2022/08/08 05:23:35;;;;;;;10.75;7.43;;;;;;;25.07;42.94;102683.06;5096713;28;20027;-78
2022/08/08 05:26:02;;;;;;;14.30;7.97;;;;;;;24.81;43.72;102682.38;5114385;28;20023;-78
2022/08/08 05:28:27;;;;;;;9.18;7.10;;;;;;;25.46;42.34;102682.31;5096597;28;20479;-78
2022/08/08 05:30:53;;;;;;;13.32;7.70;;;;;;;25.63;41.90;102689.59;5114505;28;20026;-78
2022/08/08 05:33:18;;;;;;;17.02;8.18;;;;;;;25.98;41.05;102691.59;5095963;28;20035;-78
2022/08/08 05:35:45;;;;;;;17.42;7.07;;;;;;;26.14;40.88;102687.31;5095560;28;20019;-78
2022/08/08 05:38:17;;;;;;;11.02;6.88;;;;;;;26.31;40.23;102683.84;5096468;28;20024;-78
2022/08/08 05:40:48;;;;;;;10.10;6.68;;;;;;;26.00;41.52;102685.25;5095607;28;20062;-78
2022/08/08 05:43:27;;;;;;;9.75;7.80;;;;;;;24.83;44.17;102691.19;5096604;28;20027;-78
2022/08/08 05:46:00;;;;;;;9.50;6.13;;;;;;;24.73;44.51;102688.03;5096323;28;20039;-78
2022/08/08 05:48:26;;;;;;;11.27;6.20;;;;;;;25.60;42.83;102688.88;5113756;28;20028;-78
2022/08/08 05:50:51;;;;;;;11.38;5.93;;;;;;;25.34;43.53;102696.25;5114320;28;20068;-78
2022/08/08 05:53:24;;;;;;;12.20;6.43;;;;;;;24.79;44.45;102689.56;5095993;28;20020;-78
2022/08/08 05:55:50;;;;;;;;;;;;;;;26.37;41.34;102699.63;5095847;28;20108;-78
2022/08/08 05:58:17;;;;;;;11.07;4.93;;;;;;;26.36;41.32;102699.69;5096142;28;19916;-78
2022/08/08 06:00:46;;;;;;;6.20;4.78;;;;;;;26.76;40.38;102692.41;5095415;28;20015;-78
2022/08/08 06:03:14;;;;;;;13.18;4.60;;;;;;;26.56;40.95;102688.88;5113767;28;20023;-77
2022/08/08 06:05:47;;;;;;;7.07;4.40;;;;;;;25.89;42.19;102698.28;5095798;28;20019;-77
2022/08/08 06:08:13;;;;;;;;;;;;;;;27.31;39.59;102698.63;5095619;28;20019;-78
2022/08/08 06:10:40;;;;;;;10.52;4.45;;;;;;;25.09;44.07;102707.06;5113798;28;19919;-77
2022/08/08 06:13:07;;;;;;;11.40;5.47;;;;;;;25.60;43.49;102702.28;5113435;28;20080;-78
2022/08/08 06:15:34;;;;;;;8.45;3.30;;;;;;;26.89;40.32;102698.06;5094766;28;20024;-78
2022/08/08 06:18:00;;;;;;;9.98;3.47;;;;;;;27.78;38.63;102700.66;5113810;28;20024;-78
2022/08/08 06:20:25;;;;;;;8.98;3.70;;;;;;;26.28;41.08;102704.56;5095329;28;20080;-78
2022/08/08 06:22:51;;;;;;;7.25;3.78;;;;;;;26.86;40.26;102708.91;5094611;28;20028;-77
2022/08/08 06:25:17;;;;;;;11.55;3.53;;;;;;;26.86;40.55;102709.81;5113422;28;20019;-78
2022/08/08 06:27:51;;;;;;;12.55;3.40;;;;;;;27.56;39.14;102712.53;5095267;28;20027;-77
2022/08/08 06:30:18;;;;;;;5.32;3.00;;;;;;;27.63;39.21;102713.09;5112636;28;20037;-77
2022/08/08 06:33:04;;;;;;;5.05;2.78;;;;;;;27.92;38.58;102714.19;5095245;28;20072;-77
2022/08/08 06:35:31;;;;;;;7.65;3.10;;;;;;;27.54;38.97;102717.09;5095158;28;20027;-77
2022/08/08 06:37:59;;;;;;;4.47;2.63;;;;;;;26.86;40.04;102707.13;5112650;28;20020;-77
2022/08/08 06:40:28;;;;;;;7.22;2.50;;;;;;;27.59;38.62;102708.81;5094804;28;20047;-77
2022/08/08 06:42:58;;;;;;;8.65;2.45;;;;;;;27.95;37.59;102720.38;5094393;28;20483;-77
2022/08/08 06:45:26;;;;;;;6.07;2.45;;;;;;;28.65;37.10;102709.38;5094668;28;20095;-77
2022/08/08 06:47:51;;;;;;;8.60;2.30;;;;;;;28.60;36.91;102709.56;5113057;28;20526;-77
2022/08/08 06:50:17;;;;;;;4.22;1.83;;;;;;;27.01;39.51;102718.03;5094159;28;20123;-77
2022/08/08 06:52:43;;;;;;;4.55;1.92;;;;;;;27.53;38.32;102718.06;5094369;28;20043;-77
2022/08/08 06:55:08;;;;;;;8.30;2.00;;;;;;;27.29;38.44;102722.84;5094430;28;20024;-77
2022/08/08 06:57:34;;;;;;;7.25;2.08;;;;;;;28.25;37.74;102720.53;5094149;28;20020;-77
2022/08/08 07:00:04;;;;;;;4.72;1.73;;;;;;;29.97;34.79;102713.19;5094855;28;20023;-77
2022/08/08 07:02:32;;;;;;;4.82;1.73;;;;;;;31.63;32.64;102718.34;5112454;28;20023;-77
2022/08/08 07:05:12;;;;;;;4.47;1.58;;;;;;;31.71;31.74;102719.63;5093947;28;20028;-77
2022/08/08 07:08:00;;;;;;;4.40;1.60;;;;;;;31.93;31.29;102730.66;5112547;28;20080;-76
2022/08/08 07:10:32;;;;;;;10.32;2.78;;;;;;;32.33;29.99;102731.44;5112541;28;20110;-77
2022/08/08 07:13:09;;;;;;;6.78;1.48;;;;;;;34.87;27.19;102718.81;5093684;28;20526;-77
2022/08/08 07:15:45;;;;;;;4.85;1.30;;;;;;;32.98;28.99;102733.78;5094199;28;20023;-77
2022/08/08 07:18:15;;;;;;;6.55;1.33;;;;;;;33.09;28.45;102734.81;5093969;28;20118;-77
2022/08/08 07:20:43;;;;;;;3.53;1.35;;;;;;;32.42;29.53;102738.91;5094414;28;20035;-77
2022/08/08 07:23:30;;;;;;;4.10;1.17;;;;;;;35.61;27.36;102734.19;5094192;28;20015;-77
2022/08/08 07:26:01;;;;;;;6.22;1.75;;;;;;;35.12;26.39;102738.44;5111873;28;20494;-77
2022/08/08 07:28:27;;;;;;;4.75;1.20;;;;;;;35.80;24.60;102743.44;5094362;28;20032;-77
2022/08/08 07:30:53;;;;;;;3.13;1.35;;;;;;;34.54;26.38;102736.91;5094300;28;20451;-77
2022/08/08 07:33:22;;;;;;;5.38;1.20;;;;;;;36.17;24.56;102741.00;5093702;28;20054;-77
2022/08/08 07:35:48;;;;;;;7.68;1.48;;;;;;;34.84;26.43;102746.19;5111961;28;20557;-77
2022/08/08 07:38:16;;;;;;;3.72;1.10;;;;;;;36.38;24.65;102747.38;5112397;28;20107;-77
2022/08/08 07:40:44;;;;;;;2.63;1.17;;;;;;;34.57;25.47;102750.22;5112078;28;20540;-77
2022/08/08 07:43:11;;;;;;;5.82;1.20;;;;;;;36.25;24.75;102751.19;5094072;28;20027;-77
2022/08/08 07:45:37;;;;;;;3.92;1.08;;;;;;;35.76;24.59;102748.25;5093874;28;20380;-77
2022/08/08 07:48:03;;;;;;;3.05;0.98;;;;;;;38.19;23.36;102747.53;5093506;28;20020;-78
2022/08/08 07:50:30;;;;;;;3.85;1.08;;;;;;;37.44;22.69;102745.69;5093958;28;20034;-77
2022/08/08 07:53:01;;;;;;;4.75;1.30;;;;;;;37.95;22.10;102750.81;5112314;28;20077;-77
2022/08/08 07:55:29;;;;;;;;;;;;;;;36.66;23.74;102768.34;5094117;28;20457;-77
2022/08/08 07:58:18;;;;;;;2.80;0.90;;;;;;;36.86;23.04;102757.50;5094410;28;20282;-77
2022/08/08 08:01:03;;;;;;;6.03;1.13;;;;;;;35.82;24.14;102764.09;5115498;28;20019;-76
2022/08/08 08:03:44;;;;;;;3.92;0.85;;;;;;;34.66;25.79;102771.19;5097923;28;20020;-77
2022/08/08 08:06:12;;;;;;;5.18;1.25;;;;;;;33.80;26.65;102756.47;5097837;28;20114;-77
2022/08/08 08:08:49;;;;;;;2.53;0.77;;;;;;;31.12;30.38;102772.28;5097237;28;20027;-77
2022/08/08 08:11:17;;;;;;;10.15;1.27;;;;;;;31.20;30.40;102767.22;5116050;28;20031;-77
2022/08/08 08:14:01;;;;;;;2.58;1.30;;;;;;;29.57;33.17;102775.75;5097926;28;20051;-76
2022/08/08 08:16:38;;;;;;;4.25;1.13;;;;;;;31.14;31.59;102770.34;5115458;28;20023;-76
2022/08/08 08:19:09;;;;;;;4.13;1.10;;;;;;;29.75;32.46;102773.78;5097799;28;20161;-77
2022/08/08 08:21:45;;;;;;;1.65;1.10;;;;;;;29.96;32.33;102782.38;5115380;28;20012;-76
2022/08/08 08:24:11;;;;;;;3.35;0.90;;;;;;;29.49;32.76;102778.91;5097995;28;20028;-76
2022/08/08 08:26:37;;;;;;;2.92;1.00;;;;;;;30.99;30.97;102782.13;5097785;28;20164;-77
2022/08/08 08:29:03;;;;;;;3.08;1.10;;;;;;;33.72;26.67;102769.72;5096938;28;20533;-77
2022/08/08 08:31:29;;;;;;;2.33;0.80;;;;;;;34.27;25.89;102776.16;5097556;28;20505;-77
2022/08/08 08:33:55;;;;;;;4.50;1.08;;;;;;;36.83;23.38;102782.28;5097435;28;20023;-77
2022/08/08 08:36:20;;;;;;;3.92;1.00;;;;;;;37.55;22.85;102780.13;5115290;28;20094;-77
2022/08/08 08:38:46;;;;;;;2.75;0.90;;;;;;;37.40;22.53;102781.56;5097176;28;20081;-77
2022/08/08 08:41:12;;;;;;;2.40;0.90;;;;;;;37.47;23.48;102788.16;5097697;28;20024;-77
2022/08/08 08:43:40;;;;;;;1.83;0.82;;;;;;;39.15;20.11;102784.41;5115287;28;20028;-77
2022/08/08 08:46:11;;;;;;;5.15;1.58;;;;;;;36.34;23.58;102785.78;5096999;28;20051;-77
2022/08/08 08:48:37;;;;;;;3.35;0.88;;;;;;;36.22;23.41;102794.16;5115355;28;20110;-76
2022/08/08 08:51:04;;;;;;;3.42;1.00;;;;;;;36.00;24.25;102782.50;5097010;28;20135;-77
2022/08/08 08:53:35;;;;;;;2.78;1.05;;;;;;;36.78;23.07;102788.16;5097451;28;20027;-77
2022/08/08 08:56:02;;;;;;;3.10;1.10;;;;;;;38.95;21.15;102790.03;5115875;28;20106;-77
2022/08/08 08:58:34;;;;;;;3.10;0.85;;;;;;;37.32;22.77;102785.88;5096272;28;20026;-77
2022/08/08 09:01:01;;;;;;;4.57;1.10;;;;;;;38.74;20.64;102784.03;5115310;28;20022;-76
2022/08/08 09:03:29;;;;;;;3.17;1.00;;;;;;;41.60;19.08;102781.72;5114929;28;20035;-77
2022/08/08 09:05:55;;;;;;;4.72;1.17;;;;;;;38.26;20.56;102778.69;5096054;28;20016;-76
2022/08/08 09:08:24;;;;;;;2.00;0.82;;;;;;;36.56;22.31;102781.09;5096611;28;20034;-76
2022/08/08 09:10:49;;;;;;;3.38;1.65;;;;;;;38.69;19.76;102779.00;5112778;28;20019;-76
2022/08/08 09:13:18;;;;;;;4.43;0.90;;;;;;;39.38;19.24;102778.41;5096718;28;20660;-77
2022/08/08 09:15:43;;;;;;;2.33;0.98;;;;;;;40.73;18.36;102778.69;5114762;28;20027;-76
2022/08/08 09:18:09;;;;;;;2.92;0.60;;;;;;;39.66;19.91;102771.78;5095704;28;20027;-77
2022/08/08 09:20:36;;;;;;;2.17;1.02;;;;;;;34.93;24.12;102783.47;5114771;28;20020;-77
2022/08/08 09:23:03;;;;;;;2.97;2.17;;;;;;;34.50;25.30;102784.31;5096329;28;20471;-77
2022/08/08 09:25:29;;;;;;;3.20;1.27;;;;;;;34.18;25.92;102782.31;5113885;28;20565;-76
2022/08/08 09:27:56;;;;;;;2.80;1.10;;;;;;;35.66;24.23;102791.72;5096382;28;20028;-76
2022/08/08 09:30:24;;;;;;;2.83;1.20;;;;;;;35.65;24.80;102783.72;5095965;28;20031;-76
2022/08/08 09:32:54;;;;;;;4.10;1.08;;;;;;;34.89;24.54;102781.13;5095560;28;20055;-77
2022/08/08 09:35:24;;;;;;;4.18;1.30;;;;;;;32.70;28.38;102794.59;5114477;28;20092;-76
2022/08/08 09:37:55;;;;;;;2.78;1.25;;;;;;;31.17;30.86;102797.13;5095922;28;20080;-76
2022/08/08 09:40:26;;;;;;;3.78;1.33;;;;;;;33.08;28.32;102792.66;5095289;28;20028;-76
2022/08/08 09:43:07;;;;;;;1.77;1.25;;;;;;;34.26;26.82;102793.41;5096123;28;20027;-76
2022/08/08 09:45:42;;;;;;;2.53;0.98;;;;;;;33.96;26.39;102794.94;5095622;28;20074;-76
2022/08/08 09:48:09;;;;;;;3.70;1.20;;;;;;;30.84;29.58;102801.06;5113443;28;20024;-76
2022/08/08 09:50:35;;;;;;;5.90;1.48;;;;;;;32.09;27.96;102794.44;5095806;28;20026;-76
2022/08/08 09:53:03;;;;;;;3.38;1.10;;;;;;;32.05;28.42;102792.94;5094870;28;20483;-76
2022/08/08 09:55:29;;;;;;;3.30;1.15;;;;;;;33.08;27.75;102795.38;5095758;28;20027;-76
2022/08/08 09:58:14;;;;;;;3.38;1.58;;;;;;;34.53;25.91;102788.59;5095712;28;20378;-76
2022/08/08 10:00:40;;;;;;;2.45;1.17;;;;;;;35.09;26.23;102782.16;5113132;28;20522;-77
2022/08/08 10:03:06;;;;;;;2.55;0.98;;;;;;;35.20;24.94;102776.69;5095692;28;20445;-76
2022/08/08 10:05:36;;;;;;;5.32;2.00;;;;;;;36.39;24.20;102785.34;5114054;28;20150;-77
2022/08/08 10:08:03;;;;;;;1.88;1.20;;;;;;;32.75;26.66;102786.09;5094909;28;20138;-76
2022/08/08 10:10:38;;;;;;;2.78;1.40;;;;;;;33.85;26.19;102784.06;5095185;28;20019;-77
2022/08/08 10:13:33;;;;;;;3.15;1.02;;;;;;;33.82;26.38;102787.00;5113599;28;20107;-77
2022/08/08 10:16:00;;;;;;;4.00;1.38;;;;;;;32.54;28.20;102786.69;5073300;28;20122;-77
2022/08/08 10:18:28;;;;;;;4.35;1.30;;;;;;;32.58;28.71;102785.50;5095201;28;20053;-77
2022/08/08 10:21:00;;;;;;;4.75;1.70;;;;;;;32.37;29.03;102792.47;5113092;28;20027;-76
2022/08/08 10:23:49;;;;;;;5.72;1.25;;;;;;;34.20;25.36;102783.06;5113160;28;20038;-76
2022/08/08 10:26:43;;;;;;;2.75;1.30;;;;;;;34.34;27.04;102786.56;5094667;28;20016;-76
2022/08/08 10:29:10;;;;;;;3.53;1.20;;;;;;;34.78;25.06;102788.28;5094222;28;20107;-76
2022/08/08 10:34:23;;;;;;;2.45;1.20;;;;;;;35.81;25.32;102780.50;5113074;28;20119;-76
2022/08/08 10:36:50;;;;;;;2.92;1.13;;;;;;;34.56;25.77;102788.38;5094364;28;20023;-77
2022/08/08 10:39:42;;;;;;;2.85;1.23;;;;;;;33.34;27.51;102781.72;5112916;28;20032;-77
2022/08/08 10:42:10;;;;;;;3.17;1.35;;;;;;;33.25;27.56;102784.16;5094168;28;20057;-76
2022/08/08 10:44:38;;;;;;;3.45;1.10;;;;;;;35.41;25.74;102778.56;5112806;28;20055;-76
2022/08/08 10:47:15;;;;;;;2.35;1.13;;;;;;;33.73;26.16;102782.28;5112877;28;20031;-77
2022/08/08 10:49:50;;;;;;;2.85;0.93;;;;;;;34.78;24.95;102784.72;5112236;28;20027;-76
2022/08/08 10:52:25;;;;;;;2.20;1.20;;;;;;;33.04;25.72;102783.06;5094870;28;20143;-76
2022/08/08 10:55:14;;;;;;;2.22;1.00;;;;;;;33.53;25.88;102782.00;5094705;28;20062;-76
2022/08/08 10:57:43;;;;;;;2.88;1.10;;;;;;;33.86;25.58;102783.06;5094108;28;20213;-76
2022/08/08 11:00:11;;;;;;;3.45;1.20;;;;;;;33.80;26.10;102779.00;5112896;28;20463;-77
2022/08/08 11:02:37;;;;;;;2.08;1.20;;;;;;;34.78;24.40;102785.56;5112899;28;20428;-77
2022/08/08 11:05:10;;;;;;;1.75;1.10;;;;;;;34.94;24.92;102785.19;5094006;28;20391;-76
2022/08/08 11:07:38;;;;;;;1.90;0.90;;;;;;;35.74;23.01;102773.91;5094441;28;20031;-76
2022/08/08 11:10:12;;;;;;;2.45;1.00;;;;;;;35.53;22.77;102772.06;5112387;28;20026;-77
2022/08/08 11:12:46;;;;;;;3.35;1.08;;;;;;;35.20;24.06;102764.94;5094534;28;20055;-77
2022/08/08 11:15:17;;;;;;;2.72;1.00;;;;;;;34.50;25.03;102765.31;5094559;28;20035;-77
2022/08/08 11:17:45;;;;;;;3.53;1.02;;;;;;;30.93;29.05;102765.38;5093566;28;20024;-75
2022/08/08 11:20:16;;;;;;;2.95;1.05;;;;;;;31.22;29.38;102767.97;5094479;28;20023;-76
2022/08/08 11:22:41;;;;;;;4.28;1.85;;;;;;;31.13;30.15;102769.47;5094528;28;20472;-76
2022/08/08 11:25:10;;;;;;;2.05;1.20;;;;;;;32.49;27.74;102769.94;5112247;28;20034;-76
2022/08/08 11:27:36;;;;;;;2.28;1.10;;;;;;;31.54;28.34;102761.31;5094432;28;20027;-76
2022/08/08 11:30:06;;;;;;;4.78;1.85;;;;;;;32.58;27.15;102766.53;5112438;28;20035;-76
2022/08/08 11:32:36;;;;;;;2.65;1.02;;;;;;;34.06;25.28;102761.63;5093744;28;20067;-76
2022/08/08 11:35:10;;;;;;;2.15;1.27;;;;;;;31.68;29.19;102765.81;5097583;28;20020;-76
2022/08/08 11:37:37;;;;;;;2.22;1.30;;;;;;;31.71;28.66;102766.47;5098535;28;20027;-76
2022/08/08 11:40:05;;;;;;;2.30;1.00;;;;;;;32.30;28.27;102755.06;5097898;28;20375;-76
2022/08/08 11:42:32;;;;;;;3.90;1.13;;;;;;;33.58;27.23;102752.72;5098447;28;20024;-76
2022/08/08 11:44:58;;;;;;;2.72;1.10;;;;;;;31.53;28.53;102763.19;5116188;28;20169;-76
2022/08/08 11:47:24;;;;;;;2.13;1.20;;;;;;;31.73;28.96;102771.75;5115866;28;20080;-76
2022/08/08 11:49:53;;;;;;;3.70;1.20;;;;;;;33.25;26.66;102751.66;5098240;28;20349;-76
2022/08/08 11:52:19;;;;;;;4.90;1.35;;;;;;;33.84;26.43;102752.53;5098356;28;20035;-76
2022/08/08 11:54:45;;;;;;;5.07;1.15;;;;;;;34.05;25.31;102746.34;5097859;28;20116;-76
2022/08/08 11:57:11;;;;;;;3.10;1.30;;;;;;;35.56;23.72;102744.59;5097848;28;20081;-77